sensor_id;sensor_type;location;lat;lon;timestamp;pressure;altitude;pressure_sealevel;temperature;humidity
6778;BME280;3426;52.244;10.534;2022-07-23T00:01:27;100936.34;;;21.35;57.87
6778;BME280;3426;52.244;10.534;2022-07-23T00:03:57;100946.41;;;21.23;58.18
6778;BME280;3426;52.244;10.534;2022-07-23T00:06:24;100946.00;;;21.08;58.67
6778;BME280;3426;52.244;10.534;2022-07-23T00:08:51;100954.47;;;20.26;61.59
6778;BME280;3426;52.244;10.534;2022-07-23T00:11:18;100942.38;;;20.71;60.53
6778;BME280;3426;52.244;10.534;2022-07-23T00:13:44;100943.75;;;21.04;59.05
6778;BME280;3426;52.244;10.534;2022-07-23T00:16:11;100949.53;;;21.09;58.95
6778;BME280;3426;52.244;10.534;2022-07-23T00:18:38;100939.44;;;20.14;62.06
6778;BME280;3426;52.244;10.534;2022-07-23T00:21:04;100927.63;;;20.84;60.01
6778;BME280;3426;52.244;10.534;2022-07-23T00:23:31;100937.75;;;20.32;61.15
6778;BME280;3426;52.244;10.534;2022-07-23T00:25:57;100944.13;;;19.81;62.93
6778;BME280;3426;52.244;10.534;2022-07-23T00:28:24;100937.47;;;19.55;64.19
6778;BME280;3426;52.244;10.534;2022-07-23T00:30:51;100943.28;;;20.41;61.56
6778;BME280;3426;52.244;10.534;2022-07-23T00:33:17;100942.28;;;20.42;61.79
6778;BME280;3426;52.244;10.534;2022-07-23T00:35:44;100945.34;;;20.77;60.72
6778;BME280;3426;52.244;10.534;2022-07-23T00:38:11;100957.38;;;20.83;60.29
6778;BME280;3426;52.244;10.534;2022-07-23T00:40:38;100938.81;;;20.89;60.28
6778;BME280;3426;52.244;10.534;2022-07-23T00:43:05;100936.38;;;20.48;62.04
6778;BME280;3426;52.244;10.534;2022-07-23T00:45:31;100941.91;;;20.75;61.25
6778;BME280;3426;52.244;10.534;2022-07-23T00:47:58;100942.38;;;20.71;61.73
6778;BME280;3426;52.244;10.534;2022-07-23T00:50:26;100942.19;;;20.91;60.94
6778;BME280;3426;52.244;10.534;2022-07-23T00:52:53;100961.31;;;20.69;61.31
6778;BME280;3426;52.244;10.534;2022-07-23T00:55:19;100963.03;;;20.80;60.66
6778;BME280;3426;52.244;10.534;2022-07-23T00:57:46;100957.09;;;20.76;60.75
6778;BME280;3426;52.244;10.534;2022-07-23T01:00:14;100960.47;;;20.98;60.01
6778;BME280;3426;52.244;10.534;2022-07-23T01:02:41;100953.97;;;20.81;60.42
6778;BME280;3426;52.244;10.534;2022-07-23T01:05:09;100950.28;;;20.72;60.48
6778;BME280;3426;52.244;10.534;2022-07-23T01:07:36;100944.69;;;20.25;62.03
6778;BME280;3426;52.244;10.534;2022-07-23T01:10:04;100947.03;;;20.78;60.15
6778;BME280;3426;52.244;10.534;2022-07-23T01:12:32;100940.22;;;20.94;59.46
6778;BME280;3426;52.244;10.534;2022-07-23T01:14:59;100949.13;;;20.46;61.14
6778;BME280;3426;52.244;10.534;2022-07-23T01:17:26;100950.84;;;19.97;62.10
6778;BME280;3426;52.244;10.534;2022-07-23T01:19:53;100942.97;;;20.15;62.25
6778;BME280;3426;52.244;10.534;2022-07-23T01:22:20;100933.63;;;20.09;61.99
6778;BME280;3426;52.244;10.534;2022-07-23T01:24:50;100936.13;;;19.40;64.58
6778;BME280;3426;52.244;10.534;2022-07-23T01:27:16;100943.41;;;20.29;61.82
6778;BME280;3426;52.244;10.534;2022-07-23T01:29:44;100937.56;;;19.44;64.21
6778;BME280;3426;52.244;10.534;2022-07-23T01:32:13;100936.22;;;19.90;62.52
6778;BME280;3426;52.244;10.534;2022-07-23T01:34:39;100930.03;;;19.99;62.10
6778;BME280;3426;52.244;10.534;2022-07-23T01:37:07;100923.59;;;20.21;61.29
6778;BME280;3426;52.244;10.534;2022-07-23T01:39:33;100921.66;;;20.52;60.39
6778;BME280;3426;52.244;10.534;2022-07-23T01:42:00;100923.56;;;20.11;62.11
6778;BME280;3426;52.244;10.534;2022-07-23T01:44:27;100913.84;;;19.49;63.23
6778;BME280;3426;52.244;10.534;2022-07-23T01:46:53;100899.25;;;20.22;61.29
6778;BME280;3426;52.244;10.534;2022-07-23T01:49:19;100902.66;;;20.34;60.89
6778;BME280;3426;52.244;10.534;2022-07-23T01:51:46;100893.03;;;20.41;60.64
6778;BME280;3426;52.244;10.534;2022-07-23T01:54:33;100886.41;;;20.55;59.92
6778;BME280;3426;52.244;10.534;2022-07-23T01:57:00;100881.88;;;20.46;60.35
6778;BME280;3426;52.244;10.534;2022-07-23T01:59:27;100886.00;;;20.50;59.96
6778;BME280;3426;52.244;10.534;2022-07-23T02:01:54;100884.28;;;20.58;59.51
6778;BME280;3426;52.244;10.534;2022-07-23T02:04:22;100896.75;;;20.50;59.54
6778;BME280;3426;52.244;10.534;2022-07-23T02:06:49;100895.53;;;20.04;61.12
6778;BME280;3426;52.244;10.534;2022-07-23T02:09:16;100880.59;;;19.71;62.45
6778;BME280;3426;52.244;10.534;2022-07-23T02:11:43;100879.41;;;20.23;60.82
6778;BME280;3426;52.244;10.534;2022-07-23T02:14:09;100883.97;;;20.42;60.05
6778;BME280;3426;52.244;10.534;2022-07-23T02:16:36;100881.69;;;20.28;59.84
6778;BME280;3426;52.244;10.534;2022-07-23T02:19:03;100891.47;;;20.38;59.76
6778;BME280;3426;52.244;10.534;2022-07-23T02:21:30;100895.84;;;20.39;59.86
6778;BME280;3426;52.244;10.534;2022-07-23T02:23:57;100902.56;;;19.55;62.25
6778;BME280;3426;52.244;10.534;2022-07-23T02:26:23;100898.81;;;19.67;62.54
6778;BME280;3426;52.244;10.534;2022-07-23T02:28:50;100901.56;;;19.04;64.31
6778;BME280;3426;52.244;10.534;2022-07-23T02:31:16;100889.44;;;19.62;62.89
6778;BME280;3426;52.244;10.534;2022-07-23T02:33:43;100885.56;;;19.75;62.58
6778;BME280;3426;52.244;10.534;2022-07-23T02:36:09;100869.19;;;20.07;61.01
6778;BME280;3426;52.244;10.534;2022-07-23T02:38:36;100870.34;;;20.24;60.34
6778;BME280;3426;52.244;10.534;2022-07-23T02:41:02;100882.28;;;20.31;60.13
6778;BME280;3426;52.244;10.534;2022-07-23T02:43:29;100886.16;;;19.89;60.48
6778;BME280;3426;52.244;10.534;2022-07-23T02:45:55;100892.94;;;19.83;61.24
6778;BME280;3426;52.244;10.534;2022-07-23T02:48:22;100877.19;;;19.69;62.06
6778;BME280;3426;52.244;10.534;2022-07-23T02:50:48;100878.44;;;19.65;62.03
6778;BME280;3426;52.244;10.534;2022-07-23T02:53:15;100873.28;;;20.02;60.52
6778;BME280;3426;52.244;10.534;2022-07-23T02:55:41;100870.94;;;19.68;61.61
6778;BME280;3426;52.244;10.534;2022-07-23T02:58:08;100889.84;;;19.88;60.84
6778;BME280;3426;52.244;10.534;2022-07-23T03:00:34;100894.41;;;20.06;60.16
6778;BME280;3426;52.244;10.534;2022-07-23T03:03:01;100898.81;;;20.17;59.62
6778;BME280;3426;52.244;10.534;2022-07-23T03:05:28;100901.84;;;19.83;61.08
6778;BME280;3426;52.244;10.534;2022-07-23T03:07:54;100893.50;;;19.96;60.44
6778;BME280;3426;52.244;10.534;2022-07-23T03:10:21;100892.72;;;19.35;62.21
6778;BME280;3426;52.244;10.534;2022-07-23T03:12:47;100895.31;;;18.62;65.00
6778;BME280;3426;52.244;10.534;2022-07-23T03:15:13;100902.84;;;19.52;62.70
6778;BME280;3426;52.244;10.534;2022-07-23T03:17:40;100919.78;;;19.22;63.61
6778;BME280;3426;52.244;10.534;2022-07-23T03:20:07;100922.34;;;19.84;61.08
6778;BME280;3426;52.244;10.534;2022-07-23T03:22:34;100927.56;;;19.55;61.97
6778;BME280;3426;52.244;10.534;2022-07-23T03:25:00;100919.31;;;19.17;63.40
6778;BME280;3426;52.244;10.534;2022-07-23T03:27:28;100927.75;;;18.59;65.00
6778;BME280;3426;52.244;10.534;2022-07-23T03:29:58;100916.25;;;18.79;64.68
6778;BME280;3426;52.244;10.534;2022-07-23T03:32:25;100909.78;;;19.33;62.65
6778;BME280;3426;52.244;10.534;2022-07-23T03:34:52;100925.75;;;19.25;62.74
6778;BME280;3426;52.244;10.534;2022-07-23T03:37:20;100918.22;;;18.98;64.23
6778;BME280;3426;52.244;10.534;2022-07-23T03:39:47;100919.06;;;18.78;64.47
6778;BME280;3426;52.244;10.534;2022-07-23T03:42:13;100918.25;;;18.66;64.21
6778;BME280;3426;52.244;10.534;2022-07-23T03:44:40;100929.09;;;19.48;62.43
6778;BME280;3426;52.244;10.534;2022-07-23T03:47:06;100923.84;;;19.16;63.33
6778;BME280;3426;52.244;10.534;2022-07-23T03:49:34;100918.41;;;19.89;60.78
6778;BME280;3426;52.244;10.534;2022-07-23T03:52:01;100928.06;;;19.40;62.05
6778;BME280;3426;52.244;10.534;2022-07-23T03:54:27;100917.66;;;19.77;60.66
6778;BME280;3426;52.244;10.534;2022-07-23T03:56:54;100905.53;;;19.82;60.67
6778;BME280;3426;52.244;10.534;2022-07-23T03:59:20;100910.47;;;19.56;61.35
6778;BME280;3426;52.244;10.534;2022-07-23T04:01:50;100896.31;;;19.85;60.43
6778;BME280;3426;52.244;10.534;2022-07-23T04:04:16;100881.22;;;19.94;60.14
6778;BME280;3426;52.244;10.534;2022-07-23T04:06:43;100891.81;;;19.95;60.14
6778;BME280;3426;52.244;10.534;2022-07-23T04:09:09;100882.97;;;20.14;59.41
6778;BME280;3426;52.244;10.534;2022-07-23T04:11:36;100879.41;;;20.13;59.14
6778;BME280;3426;52.244;10.534;2022-07-23T04:14:02;100882.09;;;20.04;59.39
6778;BME280;3426;52.244;10.534;2022-07-23T04:16:29;100873.00;;;19.85;60.02
6778;BME280;3426;52.244;10.534;2022-07-23T04:18:57;100887.19;;;20.07;59.24
6778;BME280;3426;52.244;10.534;2022-07-23T04:21:24;100902.28;;;19.58;60.64
6778;BME280;3426;52.244;10.534;2022-07-23T04:23:51;100911.06;;;19.29;62.28
6778;BME280;3426;52.244;10.534;2022-07-23T04:26:17;100902.03;;;19.61;61.81
6778;BME280;3426;52.244;10.534;2022-07-23T04:28:44;100905.00;;;19.98;60.77
6778;BME280;3426;52.244;10.534;2022-07-23T04:31:10;100910.00;;;19.42;62.04
6778;BME280;3426;52.244;10.534;2022-07-23T04:33:37;100905.31;;;19.44;62.24
6778;BME280;3426;52.244;10.534;2022-07-23T04:36:04;100917.53;;;19.27;63.35
6778;BME280;3426;52.244;10.534;2022-07-23T04:38:30;100919.13;;;18.88;64.19
6778;BME280;3426;52.244;10.534;2022-07-23T04:40:58;100914.69;;;18.34;66.75
6778;BME280;3426;52.244;10.534;2022-07-23T04:43:25;100899.66;;;19.16;64.58
6778;BME280;3426;52.244;10.534;2022-07-23T04:45:51;100894.28;;;19.68;62.18
6778;BME280;3426;52.244;10.534;2022-07-23T04:48:18;100878.03;;;19.69;62.11
6778;BME280;3426;52.244;10.534;2022-07-23T04:50:46;100888.78;;;19.69;62.47
6778;BME280;3426;52.244;10.534;2022-07-23T04:53:12;100891.81;;;19.85;61.58
6778;BME280;3426;52.244;10.534;2022-07-23T04:55:39;100897.50;;;20.02;61.48
6778;BME280;3426;52.244;10.534;2022-07-23T04:58:05;100895.25;;;20.07;61.11
6778;BME280;3426;52.244;10.534;2022-07-23T05:00:32;100885.09;;;20.20;60.31
6778;BME280;3426;52.244;10.534;2022-07-23T05:02:59;100880.47;;;19.21;63.75
6778;BME280;3426;52.244;10.534;2022-07-23T05:05:25;100885.00;;;19.51;62.47
6778;BME280;3426;52.244;10.534;2022-07-23T05:07:52;100897.13;;;19.66;62.91
6778;BME280;3426;52.244;10.534;2022-07-23T05:10:19;100899.06;;;20.04;61.58
6778;BME280;3426;52.244;10.534;2022-07-23T05:12:45;100910.19;;;19.80;62.79
6778;BME280;3426;52.244;10.534;2022-07-23T05:15:12;100908.44;;;20.10;62.37
6778;BME280;3426;52.244;10.534;2022-07-23T05:17:38;100896.66;;;20.01;62.97
6778;BME280;3426;52.244;10.534;2022-07-23T05:20:05;100902.06;;;20.11;62.20
6778;BME280;3426;52.244;10.534;2022-07-23T05:22:32;100900.97;;;20.33;61.85
6778;BME280;3426;52.244;10.534;2022-07-23T05:24:59;100908.06;;;19.74;63.78
6778;BME280;3426;52.244;10.534;2022-07-23T05:27:26;100914.72;;;19.80;63.72
6778;BME280;3426;52.244;10.534;2022-07-23T05:29:52;100925.00;;;20.25;62.11
6778;BME280;3426;52.244;10.534;2022-07-23T05:32:18;100923.41;;;20.03;62.51
6778;BME280;3426;52.244;10.534;2022-07-23T05:34:45;100921.69;;;20.02;63.42
6778;BME280;3426;52.244;10.534;2022-07-23T05:37:11;100928.19;;;19.38;65.21
6778;BME280;3426;52.244;10.534;2022-07-23T05:39:38;100927.13;;;19.71;65.14
6778;BME280;3426;52.244;10.534;2022-07-23T05:42:05;100931.25;;;20.35;63.00
6778;BME280;3426;52.244;10.534;2022-07-23T05:44:31;100929.84;;;20.31;62.42
6778;BME280;3426;52.244;10.534;2022-07-23T05:47:01;100919.53;;;19.25;65.53
6778;BME280;3426;52.244;10.534;2022-07-23T05:49:27;100919.41;;;19.57;64.53
6778;BME280;3426;52.244;10.534;2022-07-23T05:51:54;100917.91;;;20.24;62.89
6778;BME280;3426;52.244;10.534;2022-07-23T05:54:20;100905.19;;;20.35;61.95
6778;BME280;3426;52.244;10.534;2022-07-23T05:56:47;100898.16;;;20.63;60.44
6778;BME280;3426;52.244;10.534;2022-07-23T05:59:13;100908.28;;;20.11;61.88
6778;BME280;3426;52.244;10.534;2022-07-23T06:01:41;100914.56;;;20.99;59.25
6778;BME280;3426;52.244;10.534;2022-07-23T06:04:08;100918.00;;;20.62;60.92
6778;BME280;3426;52.244;10.534;2022-07-23T06:06:34;100904.91;;;21.06;59.38
6778;BME280;3426;52.244;10.534;2022-07-23T06:09:01;100913.91;;;21.81;57.20
6778;BME280;3426;52.244;10.534;2022-07-23T06:11:28;100902.81;;;21.84;56.72
6778;BME280;3426;52.244;10.534;2022-07-23T06:13:55;100903.91;;;22.19;55.58
6778;BME280;3426;52.244;10.534;2022-07-23T06:16:22;100914.16;;;23.57;51.90
6778;BME280;3426;52.244;10.534;2022-07-23T06:18:49;100917.25;;;22.38;54.40
6778;BME280;3426;52.244;10.534;2022-07-23T06:21:15;100921.16;;;23.41;52.45
6778;BME280;3426;52.244;10.534;2022-07-23T06:24:02;100912.94;;;22.81;54.20
6778;BME280;3426;52.244;10.534;2022-07-23T06:26:28;100922.44;;;22.32;55.08
6778;BME280;3426;52.244;10.534;2022-07-23T06:28:55;100918.88;;;23.02;53.17
6778;BME280;3426;52.244;10.534;2022-07-23T06:31:21;100912.09;;;23.24;52.48
6778;BME280;3426;52.244;10.534;2022-07-23T06:33:48;100915.66;;;22.81;54.28
6778;BME280;3426;52.244;10.534;2022-07-23T06:36:14;100916.66;;;22.62;53.74
6778;BME280;3426;52.244;10.534;2022-07-23T06:38:41;100920.97;;;22.19;54.78
6778;BME280;3426;52.244;10.534;2022-07-23T06:41:09;100913.16;;;23.06;53.02
6778;BME280;3426;52.244;10.534;2022-07-23T06:43:36;100920.13;;;22.09;53.91
6778;BME280;3426;52.244;10.534;2022-07-23T06:46:02;100907.66;;;23.15;52.39
6778;BME280;3426;52.244;10.534;2022-07-23T06:48:29;100915.44;;;22.92;52.24
6778;BME280;3426;52.244;10.534;2022-07-23T06:50:55;100920.28;;;22.89;52.07
6778;BME280;3426;52.244;10.534;2022-07-23T06:53:22;100916.31;;;23.01;51.80
6778;BME280;3426;52.244;10.534;2022-07-23T06:55:48;100917.13;;;22.75;52.34
6778;BME280;3426;52.244;10.534;2022-07-23T06:58:17;100915.25;;;22.22;52.69
6778;BME280;3426;52.244;10.534;2022-07-23T07:00:46;100907.78;;;22.70;51.23
6778;BME280;3426;52.244;10.534;2022-07-23T07:03:12;100909.34;;;23.68;49.47
6778;BME280;3426;52.244;10.534;2022-07-23T07:05:39;100908.38;;;23.51;50.21
6778;BME280;3426;52.244;10.534;2022-07-23T07:08:06;100908.84;;;24.23;47.69
6778;BME280;3426;52.244;10.534;2022-07-23T07:10:33;100916.88;;;22.69;50.96
6778;BME280;3426;52.244;10.534;2022-07-23T07:12:59;100916.97;;;22.41;51.68
6778;BME280;3426;52.244;10.534;2022-07-23T07:15:26;100927.16;;;22.30;51.41
6778;BME280;3426;52.244;10.534;2022-07-23T07:17:52;100921.97;;;21.81;52.64
6778;BME280;3426;52.244;10.534;2022-07-23T07:20:19;100918.09;;;22.39;51.66
6778;BME280;3426;52.244;10.534;2022-07-23T07:22:45;100927.97;;;21.75;53.12
6778;BME280;3426;52.244;10.534;2022-07-23T07:25:12;100924.13;;;22.51;51.26
6778;BME280;3426;52.244;10.534;2022-07-23T07:27:38;100924.50;;;23.09;50.07
6778;BME280;3426;52.244;10.534;2022-07-23T07:30:06;100933.75;;;23.59;48.82
6778;BME280;3426;52.244;10.534;2022-07-23T07:32:33;100930.53;;;23.29;48.90
6778;BME280;3426;52.244;10.534;2022-07-23T07:35:19;100943.53;;;23.51;48.57
6778;BME280;3426;52.244;10.534;2022-07-23T07:37:46;100944.97;;;23.64;47.48
6778;BME280;3426;52.244;10.534;2022-07-23T07:40:12;100947.50;;;23.99;46.84
6778;BME280;3426;52.244;10.534;2022-07-23T07:42:50;100934.47;;;24.62;45.42
6778;BME280;3426;52.244;10.534;2022-07-23T07:45:17;100944.66;;;24.59;44.86
6778;BME280;3426;52.244;10.534;2022-07-23T07:47:45;100941.81;;;25.02;43.54
6778;BME280;3426;52.244;10.534;2022-07-23T07:50:12;100945.34;;;24.86;44.51
6778;BME280;3426;52.244;10.534;2022-07-23T07:52:39;100955.56;;;23.83;45.53
6778;BME280;3426;52.244;10.534;2022-07-23T07:55:07;100951.22;;;24.49;45.18
6778;BME280;3426;52.244;10.534;2022-07-23T07:57:35;100942.63;;;24.86;44.59
6778;BME280;3426;52.244;10.534;2022-07-23T08:00:03;100944.34;;;24.87;44.57
6778;BME280;3426;52.244;10.534;2022-07-23T08:05:08;100954.56;;;23.92;45.13
6778;BME280;3426;52.244;10.534;2022-07-23T08:07:35;100963.00;;;24.23;44.40
6778;BME280;3426;52.244;10.534;2022-07-23T08:10:03;100949.34;;;23.99;45.22
6778;BME280;3426;52.244;10.534;2022-07-23T08:15:06;100938.22;;;25.01;42.57
6778;BME280;3426;52.244;10.534;2022-07-23T08:17:39;100952.97;;;24.82;42.91
6778;BME280;3426;52.244;10.534;2022-07-23T08:20:07;100960.41;;;24.64;43.26
6778;BME280;3426;52.244;10.534;2022-07-23T08:22:43;100966.25;;;24.35;43.73
6778;BME280;3426;52.244;10.534;2022-07-23T08:25:10;100972.00;;;23.20;45.56
6778;BME280;3426;52.244;10.534;2022-07-23T08:27:37;100969.25;;;23.56;44.56
6778;BME280;3426;52.244;10.534;2022-07-23T08:30:04;100972.94;;;23.54;45.34
6778;BME280;3426;52.244;10.534;2022-07-23T08:32:30;100974.06;;;23.70;44.70
6778;BME280;3426;52.244;10.534;2022-07-23T08:35:10;100970.41;;;23.79;46.00
6778;BME280;3426;52.244;10.534;2022-07-23T08:37:37;100978.47;;;23.45;44.91
6778;BME280;3426;52.244;10.534;2022-07-23T08:40:04;100974.50;;;22.42;46.62
6778;BME280;3426;52.244;10.534;2022-07-23T08:42:30;100972.34;;;23.95;44.08
6778;BME280;3426;52.244;10.534;2022-07-23T08:45:02;100972.34;;;24.37;43.84
6778;BME280;3426;52.244;10.534;2022-07-23T08:47:29;100978.78;;;24.36;43.17
6778;BME280;3426;52.244;10.534;2022-07-23T08:49:56;100974.78;;;24.06;43.23
6778;BME280;3426;52.244;10.534;2022-07-23T08:52:25;100974.06;;;24.46;42.65
6778;BME280;3426;52.244;10.534;2022-07-23T08:54:54;100973.28;;;24.12;43.59
6778;BME280;3426;52.244;10.534;2022-07-23T08:57:21;100972.22;;;24.55;42.16
6778;BME280;3426;52.244;10.534;2022-07-23T08:59:47;100977.84;;;24.78;42.73
6778;BME280;3426;52.244;10.534;2022-07-23T09:02:14;100982.22;;;24.54;42.74
6778;BME280;3426;52.244;10.534;2022-07-23T09:04:40;100985.03;;;24.37;43.21
6778;BME280;3426;52.244;10.534;2022-07-23T09:07:07;100978.03;;;24.68;43.04
6778;BME280;3426;52.244;10.534;2022-07-23T09:09:34;100974.47;;;24.76;43.28
6778;BME280;3426;52.244;10.534;2022-07-23T09:17:17;100964.69;;;25.16;41.13
6778;BME280;3426;52.244;10.534;2022-07-23T09:19:45;100972.97;;;25.30;40.17
6778;BME280;3426;52.244;10.534;2022-07-23T09:22:25;100971.06;;;24.15;42.06
6778;BME280;3426;52.244;10.534;2022-07-23T09:25:12;100967.38;;;25.16;40.27
6778;BME280;3426;52.244;10.534;2022-07-23T09:27:54;100967.03;;;25.02;39.91
6778;BME280;3426;52.244;10.534;2022-07-23T09:30:23;100968.38;;;24.82;41.61
6778;BME280;3426;52.244;10.534;2022-07-23T09:33:12;100969.44;;;25.14;40.48
6778;BME280;3426;52.244;10.534;2022-07-23T09:35:48;100974.06;;;24.46;40.43
6778;BME280;3426;52.244;10.534;2022-07-23T09:38:17;100958.56;;;24.81;41.01
6778;BME280;3426;52.244;10.534;2022-07-23T09:40:44;100963.84;;;24.24;41.08
6778;BME280;3426;52.244;10.534;2022-07-23T09:43:13;100970.72;;;24.77;40.77
6778;BME280;3426;52.244;10.534;2022-07-23T09:48:43;100974.44;;;23.75;41.13
6778;BME280;3426;52.244;10.534;2022-07-23T09:51:09;100971.94;;;24.74;40.24
6778;BME280;3426;52.244;10.534;2022-07-23T09:53:36;100952.84;;;25.08;40.13
6778;BME280;3426;52.244;10.534;2022-07-23T09:56:03;100955.00;;;25.05;40.51
6778;BME280;3426;52.244;10.534;2022-07-23T09:58:30;100953.47;;;25.35;40.69
6778;BME280;3426;52.244;10.534;2022-07-23T10:00:58;100966.03;;;25.36;39.06
6778;BME280;3426;52.244;10.534;2022-07-23T10:03:27;100964.84;;;25.14;39.88
6778;BME280;3426;52.244;10.534;2022-07-23T10:05:54;100967.78;;;26.24;37.41
6778;BME280;3426;52.244;10.534;2022-07-23T10:08:21;100960.56;;;26.08;38.54
6778;BME280;3426;52.244;10.534;2022-07-23T10:10:50;100949.13;;;26.21;37.77
6778;BME280;3426;52.244;10.534;2022-07-23T10:13:16;100951.13;;;26.58;37.27
6778;BME280;3426;52.244;10.534;2022-07-23T10:16:01;100956.03;;;25.12;39.35
6778;BME280;3426;52.244;10.534;2022-07-23T10:18:29;100954.59;;;25.57;38.17
6778;BME280;3426;52.244;10.534;2022-07-23T10:20:57;100969.72;;;24.70;39.37
6778;BME280;3426;52.244;10.534;2022-07-23T10:23:35;100960.47;;;25.85;37.95
6778;BME280;3426;52.244;10.534;2022-07-23T10:26:12;100955.16;;;25.28;38.75
6778;BME280;3426;52.244;10.534;2022-07-23T10:37:23;100954.53;;;26.21;36.59
6778;BME280;3426;52.244;10.534;2022-07-23T10:42:39;100941.03;;;26.12;37.16
6778;BME280;3426;52.244;10.534;2022-07-23T10:47:54;100958.16;;;25.57;37.55
6778;BME280;3426;52.244;10.534;2022-07-23T10:50:25;100955.66;;;25.40;37.42
6778;BME280;3426;52.244;10.534;2022-07-23T10:58:00;100951.94;;;26.66;35.85
6778;BME280;3426;52.244;10.534;2022-07-23T11:00:28;100941.13;;;26.58;36.32
6778;BME280;3426;52.244;10.534;2022-07-23T11:03:00;100949.06;;;25.98;36.70
6778;BME280;3426;52.244;10.534;2022-07-23T11:05:45;100949.56;;;26.01;36.46
6778;BME280;3426;52.244;10.534;2022-07-23T11:08:13;100953.25;;;25.61;37.40
6778;BME280;3426;52.244;10.534;2022-07-23T11:13:36;100960.75;;;26.06;35.91
6778;BME280;3426;52.244;10.534;2022-07-23T11:16:45;100958.03;;;26.06;36.11
6778;BME280;3426;52.244;10.534;2022-07-23T11:19:12;100950.28;;;26.57;34.81
6778;BME280;3426;52.244;10.534;2022-07-23T11:32:07;100950.28;;;26.57;34.73
6778;BME280;3426;52.244;10.534;2022-07-23T11:34:40;100950.97;;;26.28;34.91
6778;BME280;3426;52.244;10.534;2022-07-23T11:37:12;100946.19;;;26.61;34.97
6778;BME280;3426;52.244;10.534;2022-07-23T11:39:39;100948.91;;;27.07;34.11
6778;BME280;3426;52.244;10.534;2022-07-23T11:42:07;100954.91;;;26.17;35.43
6778;BME280;3426;52.244;10.534;2022-07-23T11:44:36;100953.56;;;25.66;36.33
6778;BME280;3426;52.244;10.534;2022-07-23T11:47:07;100957.34;;;26.44;35.89
6778;BME280;3426;52.244;10.534;2022-07-23T11:49:35;100955.16;;;26.39;35.48
6778;BME280;3426;52.244;10.534;2022-07-23T11:52:05;100953.31;;;24.79;37.59
6778;BME280;3426;52.244;10.534;2022-07-23T11:54:35;100959.97;;;26.21;35.79
6778;BME280;3426;52.244;10.534;2022-07-23T11:57:06;100965.47;;;24.51;38.38
6778;BME280;3426;52.244;10.534;2022-07-23T11:59:33;100952.59;;;25.51;37.07
6778;BME280;3426;52.244;10.534;2022-07-23T12:02:03;100956.47;;;25.64;36.75
6778;BME280;3426;52.244;10.534;2022-07-23T12:04:45;100953.00;;;25.15;38.24
6778;BME280;3426;52.244;10.534;2022-07-23T12:09:50;100945.72;;;26.27;35.60
6778;BME280;3426;52.244;10.534;2022-07-23T12:12:17;100950.19;;;26.11;36.36
6778;BME280;3426;52.244;10.534;2022-07-23T12:14:56;100958.41;;;25.95;36.78
6778;BME280;3426;52.244;10.534;2022-07-23T12:17:32;100952.00;;;26.19;35.31
6778;BME280;3426;52.244;10.534;2022-07-23T12:20:00;100946.19;;;25.99;36.34
6778;BME280;3426;52.244;10.534;2022-07-23T12:22:34;100954.84;;;25.23;37.22
6778;BME280;3426;52.244;10.534;2022-07-23T12:25:05;100945.94;;;25.78;36.17
6778;BME280;3426;52.244;10.534;2022-07-23T12:27:33;100952.19;;;26.17;35.57
6778;BME280;3426;52.244;10.534;2022-07-23T12:30:15;100945.94;;;26.09;36.07
6778;BME280;3426;52.244;10.534;2022-07-23T12:32:46;100941.00;;;26.75;35.43
6778;BME280;3426;52.244;10.534;2022-07-23T12:35:13;100944.44;;;27.14;35.06
6778;BME280;3426;52.244;10.534;2022-07-23T12:37:42;100946.19;;;26.30;35.46
6778;BME280;3426;52.244;10.534;2022-07-23T12:43:03;100940.63;;;26.24;35.46
6778;BME280;3426;52.244;10.534;2022-07-23T12:48:20;100940.69;;;26.47;35.34
6778;BME280;3426;52.244;10.534;2022-07-23T12:51:02;100947.06;;;25.92;35.80
6778;BME280;3426;52.244;10.534;2022-07-23T13:01:10;100948.91;;;25.11;37.63
6778;BME280;3426;52.244;10.534;2022-07-23T13:06:55;100944.38;;;26.23;35.51
6778;BME280;3426;52.244;10.534;2022-07-23T13:09:28;100947.66;;;26.49;35.79
6778;BME280;3426;52.244;10.534;2022-07-23T13:11:58;100941.50;;;26.55;35.55
6778;BME280;3426;52.244;10.534;2022-07-23T13:14:26;100941.56;;;26.39;34.94
6778;BME280;3426;52.244;10.534;2022-07-23T13:16:54;100947.56;;;26.26;35.85
6778;BME280;3426;52.244;10.534;2022-07-23T13:19:22;100951.75;;;27.06;34.66
6778;BME280;3426;52.244;10.534;2022-07-23T13:21:51;100948.84;;;26.69;35.34
6778;BME280;3426;52.244;10.534;2022-07-23T13:24:18;100952.38;;;26.78;35.00
6778;BME280;3426;52.244;10.534;2022-07-23T13:26:45;100953.34;;;27.00;35.01
6778;BME280;3426;52.244;10.534;2022-07-23T13:29:13;100952.94;;;26.42;35.15
6778;BME280;3426;52.244;10.534;2022-07-23T13:31:42;100953.53;;;26.53;35.83
6778;BME280;3426;52.244;10.534;2022-07-23T13:34:09;100950.28;;;26.57;34.58
6778;BME280;3426;52.244;10.534;2022-07-23T13:36:36;100953.66;;;27.05;34.39
6778;BME280;3426;52.244;10.534;2022-07-23T13:39:03;100943.13;;;27.25;33.79
6778;BME280;3426;52.244;10.534;2022-07-23T13:41:32;100953.94;;;26.10;35.03
6778;BME280;3426;52.244;10.534;2022-07-23T13:43:59;100950.28;;;26.26;34.66
6778;BME280;3426;52.244;10.534;2022-07-23T13:46:25;100953.63;;;26.36;34.53
6778;BME280;3426;52.244;10.534;2022-07-23T13:48:53;100948.66;;;26.17;34.36
6778;BME280;3426;52.244;10.534;2022-07-23T13:51:20;100946.78;;;26.72;34.46
6778;BME280;3426;52.244;10.534;2022-07-23T13:53:47;100938.16;;;26.68;35.38
6778;BME280;3426;52.244;10.534;2022-07-23T13:56:15;100957.06;;;26.61;34.41
6778;BME280;3426;52.244;10.534;2022-07-23T13:58:42;100945.34;;;26.84;33.67
6778;BME280;3426;52.244;10.534;2022-07-23T14:01:09;100956.69;;;26.02;34.69
6778;BME280;3426;52.244;10.534;2022-07-23T14:03:35;100943.44;;;26.38;34.03
6778;BME280;3426;52.244;10.534;2022-07-23T14:06:02;100945.09;;;26.71;34.12
6778;BME280;3426;52.244;10.534;2022-07-23T14:08:29;100949.72;;;26.39;34.39
6778;BME280;3426;52.244;10.534;2022-07-23T14:10:55;100953.38;;;27.23;33.17